createdAt,value
2019-04-05T00:00:12.002Z,71.51
2019-04-05T00:02:40.845Z,71.61
2019-04-05T00:05:09.802Z,71.42
2019-04-05T00:07:38.728Z,71.48
2019-04-05T00:10:07.679Z,71.61
2019-04-05T00:12:36.632Z,71.72
2019-04-05T00:15:15.053Z,71.69
2019-04-05T00:17:34.832Z,71.39
2019-04-05T00:20:04.084Z,71.27
2019-04-05T00:22:33.007Z,71.41
2019-04-05T00:25:01.953Z,71.00
2019-04-05T00:27:30.911Z,71.20
2019-04-05T00:29:59.836Z,71.21
2019-04-05T00:32:28.764Z,71.21
2019-04-05T00:34:57.668Z,71.62
2019-04-05T00:37:26.600Z,71.82
2019-04-05T00:39:55.505Z,71.72
2019-04-05T00:42:24.441Z,71.68
2019-04-05T00:44:53.356Z,70.81
2019-04-05T00:47:22.266Z,71.67
2019-04-05T00:49:51.232Z,71.90
2019-04-05T00:52:20.112Z,71.97
2019-04-05T00:54:49.028Z,72.21
2019-04-05T00:57:17.959Z,71.98
2019-04-05T00:59:46.866Z,72.19
2019-04-05T01:02:15.801Z,72.09
2019-04-05T01:04:44.739Z,72.18
2019-04-05T01:07:13.664Z,72.24
2019-04-05T01:09:42.601Z,70.94
2019-04-05T01:12:12.042Z,72.08
2019-04-05T01:14:41.267Z,72.13
2019-04-05T01:17:10.201Z,72.04
2019-04-05T01:19:39.119Z,71.61
2019-04-05T01:22:08.056Z,71.95
2019-04-05T01:24:36.988Z,71.87
2019-04-05T01:27:06.469Z,72.08
2019-04-05T01:29:35.402Z,70.93
2019-04-05T01:32:04.352Z,71.80
2019-04-05T01:34:33.295Z,72.04
2019-04-05T01:37:02.217Z,72.26
2019-04-05T01:39:31.149Z,72.28
2019-04-05T01:42:00.120Z,72.43
2019-04-05T01:44:29.094Z,72.56
2019-04-05T01:46:58.011Z,72.58
2019-04-05T01:49:26.917Z,72.83
2019-04-05T01:51:55.867Z,72.73
2019-04-05T01:54:24.795Z,72.69
2019-04-05T01:56:53.717Z,72.94
2019-04-05T01:59:22.624Z,73.19
2019-04-05T02:01:51.542Z,73.37
2019-04-05T02:04:20.481Z,73.02
2019-04-05T02:06:49.414Z,73.53
2019-04-05T02:09:18.332Z,73.12
2019-04-05T02:11:47.294Z,73.34
2019-04-05T02:14:16.205Z,73.32
2019-04-05T02:16:45.115Z,73.55
2019-04-05T02:19:14.048Z,73.24
2019-04-05T02:21:42.984Z,73.16
2019-04-05T02:24:11.902Z,73.20
2019-04-05T02:26:40.831Z,73.64
2019-04-05T02:29:09.739Z,73.28
2019-04-05T02:31:38.721Z,73.58
2019-04-05T02:34:07.669Z,73.80
2019-04-05T02:36:36.670Z,74.06
2019-04-05T02:39:07.157Z,72.45
2019-04-05T02:41:36.068Z,73.55
2019-04-05T02:44:05.088Z,73.27
2019-04-05T02:46:34.017Z,73.29
2019-04-05T02:49:02.968Z,72.06
2019-04-05T02:51:31.860Z,73.18
2019-04-05T02:54:00.765Z,73.42
2019-04-05T02:56:29.834Z,72.08
2019-04-05T02:58:58.813Z,73.28
2019-04-05T03:01:27.694Z,73.15
2019-04-05T03:03:56.605Z,73.12
2019-04-05T03:06:25.501Z,72.83
2019-04-05T03:08:54.414Z,72.75
2019-04-05T03:11:23.394Z,72.57
2019-04-05T03:13:52.474Z,72.75
2019-04-05T03:16:40.265Z,73.24
2019-04-05T03:19:05.651Z,73.58
2019-04-05T03:21:34.623Z,73.84
2019-04-05T03:24:03.522Z,73.86
2019-04-05T03:26:32.906Z,73.65
2019-04-05T03:29:01.793Z,73.94
2019-04-05T03:31:30.680Z,73.44
2019-04-05T03:33:59.570Z,73.24
2019-04-05T03:36:28.503Z,73.70
2019-04-05T03:38:57.404Z,73.61
2019-04-05T03:41:26.274Z,74.37
2019-04-05T03:43:55.186Z,74.54
2019-04-05T03:46:24.063Z,74.83
2019-04-05T03:48:52.970Z,74.98
2019-04-05T03:51:21.865Z,74.87
2019-04-05T03:53:50.805Z,75.02
2019-04-05T03:56:19.707Z,75.16
2019-04-05T03:58:48.587Z,74.38
2019-04-05T04:01:17.501Z,75.59
2019-04-05T04:03:46.421Z,75.74
2019-04-05T04:06:15.456Z,75.45
2019-04-05T04:08:44.293Z,75.57
2019-04-05T04:11:13.182Z,75.65
2019-04-05T04:13:42.091Z,75.68
2019-04-05T04:16:10.983Z,75.78
2019-04-05T04:18:39.890Z,75.31
2019-04-05T04:21:19.088Z,75.48
2019-04-05T04:23:47.967Z,75.64
2019-04-05T04:26:16.870Z,75.75
2019-04-05T04:28:45.779Z,75.75
2019-04-05T04:31:15.013Z,75.64
2019-04-05T04:33:43.904Z,75.64
2019-04-05T04:36:13.320Z,75.94
2019-04-05T04:38:41.690Z,76.16
2019-04-05T04:41:10.602Z,76.52
2019-04-05T04:43:39.484Z,76.42
2019-04-05T04:46:08.450Z,76.17
2019-04-05T04:48:37.334Z,75.05
2019-04-05T04:51:06.276Z,75.92
2019-04-05T04:53:35.166Z,75.84
2019-04-05T04:56:04.140Z,75.81
2019-04-05T04:58:33.046Z,75.87
2019-04-05T05:01:01.948Z,75.46
2019-04-05T05:03:30.867Z,75.22
2019-04-05T05:05:59.759Z,75.30
2019-04-05T05:08:28.660Z,75.59
2019-04-05T05:10:57.539Z,75.06
2019-04-05T05:13:26.452Z,74.91
2019-04-05T05:15:55.320Z,75.17
2019-04-05T05:18:24.240Z,75.71
2019-04-05T05:20:53.125Z,76.11
2019-04-05T05:23:22.042Z,75.80
2019-04-05T05:25:50.962Z,75.93
2019-04-05T05:28:19.845Z,75.92
2019-04-05T05:30:48.743Z,75.69
2019-04-05T05:33:17.649Z,75.85
2019-04-05T05:35:46.556Z,75.87
2019-04-05T05:38:15.453Z,75.70
2019-04-05T05:40:44.390Z,75.81
2019-04-05T05:43:13.274Z,76.03
2019-04-05T05:45:42.148Z,75.71
2019-04-05T05:48:11.049Z,76.10
2019-04-05T05:50:39.951Z,75.02
2019-04-05T05:53:08.857Z,75.96
2019-04-05T05:55:37.780Z,76.17
2019-04-05T05:58:06.842Z,76.17
2019-04-05T06:00:35.817Z,76.00
2019-04-05T06:03:06.257Z,74.99
2019-04-05T06:05:33.649Z,74.37
2019-04-05T06:08:02.537Z,73.22
2019-04-05T06:10:31.478Z,70.19
2019-04-05T06:13:00.400Z,66.52
2019-04-05T06:15:29.287Z,60.84
2019-04-05T06:18:04.486Z,59.50
2019-04-05T06:20:27.135Z,56.15
2019-04-05T06:22:56.053Z,54.10
2019-04-05T06:25:24.969Z,51.84
2019-04-05T06:27:53.861Z,53.51
2019-04-05T06:30:22.774Z,54.55
2019-04-05T06:32:51.713Z,54.96
2019-04-05T06:35:20.653Z,56.08
2019-04-05T06:37:49.553Z,56.82
2019-04-05T06:40:18.481Z,57.80
2019-04-05T06:42:47.417Z,57.59
2019-04-05T06:45:16.338Z,55.79
2019-04-05T06:47:45.261Z,52.67
2019-04-05T06:50:14.165Z,49.61
2019-04-05T06:52:43.084Z,47.69
2019-04-05T06:55:12.964Z,45.69
2019-04-05T06:57:41.891Z,45.15
2019-04-05T07:00:10.873Z,46.60
2019-04-05T07:02:39.770Z,47.96
2019-04-05T07:05:08.741Z,46.28
2019-04-05T07:07:37.675Z,43.81
2019-04-05T07:10:06.821Z,42.93
2019-04-05T07:12:35.754Z,43.91
2019-04-05T07:15:05.254Z,45.00
2019-04-05T07:17:34.186Z,44.76
2019-04-05T07:20:03.156Z,45.09
2019-04-05T07:22:38.856Z,45.13
2019-04-05T07:25:00.962Z,43.13
2019-04-05T07:27:29.852Z,40.43
2019-04-05T07:29:58.764Z,43.24
2019-04-05T07:32:27.668Z,43.45
2019-04-05T07:34:56.587Z,43.94
2019-04-05T07:37:25.486Z,43.10
2019-04-05T07:39:54.410Z,42.61
2019-04-05T07:42:23.315Z,42.36
2019-04-05T07:44:52.240Z,40.24
2019-04-05T07:47:21.128Z,38.95
2019-04-05T07:49:50.095Z,36.39
2019-04-05T07:52:18.979Z,36.98
2019-04-05T07:54:47.886Z,36.64
2019-04-05T07:57:16.827Z,37.29
2019-04-05T07:59:45.768Z,36.38
2019-04-05T08:02:14.619Z,35.03
2019-04-05T08:04:43.498Z,33.92
2019-04-05T08:07:12.751Z,31.54
2019-04-05T08:09:41.644Z,30.33
2019-04-05T08:12:10.629Z,29.44
2019-04-05T08:14:39.889Z,28.54
2019-04-05T08:17:08.973Z,28.71
2019-04-05T08:19:37.912Z,28.33
2019-04-05T08:22:06.875Z,29.49
2019-04-05T08:24:35.755Z,29.89
2019-04-05T08:27:04.784Z,29.88
2019-04-05T08:29:33.690Z,29.38
2019-04-05T08:32:13.897Z,29.73
2019-04-05T08:34:31.502Z,29.27
2019-04-05T08:37:00.395Z,29.29
2019-04-05T08:39:29.326Z,30.04
2019-04-05T08:41:58.345Z,29.29
2019-04-05T08:44:27.234Z,30.14
2019-04-05T08:46:56.175Z,30.35
2019-04-05T08:49:25.099Z,28.60
2019-04-05T08:51:54.016Z,29.09
2019-04-05T08:54:32.342Z,26.21
2019-04-05T08:56:51.844Z,24.87
2019-04-05T08:59:20.773Z,24.05
2019-04-05T09:01:49.663Z,23.58
2019-04-05T09:04:18.590Z,23.08
2019-04-05T09:06:47.496Z,23.46
2019-04-05T09:09:16.383Z,23.00
2019-04-05T09:11:45.297Z,22.18
2019-04-05T09:14:14.212Z,21.19
2019-04-05T09:16:43.220Z,20.93
2019-04-05T09:19:23.102Z,19.68
2019-04-05T09:21:40.962Z,20.84
2019-04-05T09:24:09.899Z,21.25
2019-04-05T09:26:38.802Z,21.47
2019-04-05T09:29:09.471Z,22.43
2019-04-05T09:31:36.920Z,21.77
2019-04-05T09:34:05.958Z,21.44
2019-04-05T09:36:34.815Z,21.27
2019-04-05T09:39:03.810Z,19.34
2019-04-05T09:41:32.726Z,20.11
2019-04-05T09:44:01.636Z,21.34
2019-04-05T09:46:30.571Z,19.71
2019-04-05T09:48:59.515Z,18.08
2019-04-05T09:51:28.435Z,18.19
2019-04-05T09:53:57.335Z,20.83
2019-04-05T09:56:26.292Z,21.43
2019-04-05T09:58:55.187Z,21.12
2019-04-05T10:01:24.128Z,19.82
2019-04-05T10:03:53.056Z,20.36
2019-04-05T10:06:21.942Z,20.26
2019-04-05T10:08:50.875Z,20.26
2019-04-05T10:11:19.789Z,19.78
2019-04-05T10:13:48.684Z,18.33
2019-04-05T10:16:17.570Z,18.15
2019-04-05T10:18:46.554Z,17.86
2019-04-05T10:21:15.417Z,21.12
2019-04-05T10:23:44.321Z,22.78
2019-04-05T10:26:13.237Z,23.97
2019-04-05T10:28:42.131Z,22.13
2019-04-05T10:31:11.042Z,21.96
2019-04-05T10:33:39.928Z,21.87
2019-04-05T10:36:09.011Z,21.16
2019-04-05T10:38:37.911Z,22.61
2019-04-05T10:41:06.994Z,21.20
2019-04-05T10:43:35.899Z,22.10
2019-04-05T10:46:04.876Z,24.52
2019-04-05T10:48:35.395Z,25.98
2019-04-05T10:51:02.711Z,26.42
2019-04-05T10:53:31.626Z,27.53
2019-04-05T10:56:00.532Z,28.69
2019-04-05T10:58:29.441Z,29.47
2019-04-05T11:00:58.344Z,30.80
2019-04-05T11:03:27.230Z,30.89
2019-04-05T11:05:56.151Z,31.40
2019-04-05T11:08:25.020Z,32.88
2019-04-05T11:10:53.891Z,34.46
2019-04-05T11:13:22.796Z,33.48
2019-04-05T11:15:51.692Z,35.24
2019-04-05T11:18:20.618Z,34.35
2019-04-05T11:20:49.840Z,34.39
2019-04-05T11:23:21.181Z,34.72
2019-04-05T11:25:47.339Z,36.28
2019-04-05T11:28:16.233Z,35.98
2019-04-05T11:30:45.792Z,37.38
2019-04-05T11:33:14.735Z,37.63
2019-04-05T11:35:43.751Z,38.26
2019-04-05T11:38:14.116Z,38.28
2019-04-05T11:40:43.004Z,38.44
2019-04-05T11:43:11.946Z,38.16
2019-04-05T11:45:40.837Z,38.31
2019-04-05T11:48:09.810Z,39.41
2019-04-05T11:50:38.688Z,38.52
2019-04-05T11:53:07.697Z,38.00
2019-04-05T11:55:36.596Z,38.34
2019-04-05T11:58:05.503Z,39.07
2019-04-05T12:00:48.099Z,38.81
2019-04-05T12:03:17.096Z,37.75
2019-04-05T12:05:45.967Z,39.15
2019-04-05T12:08:14.929Z,39.85
2019-04-05T12:10:43.862Z,41.40
2019-04-05T12:13:12.762Z,40.59
2019-04-05T12:15:41.702Z,41.80
2019-04-05T12:18:10.671Z,41.73
2019-04-05T12:20:49.182Z,41.74
2019-04-05T12:23:08.671Z,42.95
2019-04-05T12:25:37.588Z,44.51
2019-04-05T12:28:10.310Z,44.22
2019-04-05T12:30:35.453Z,44.81
2019-04-05T12:33:14.031Z,44.89
2019-04-05T12:35:33.341Z,44.92
2019-04-05T12:38:06.746Z,45.27
2019-04-05T12:40:33.391Z,44.94
2019-04-05T12:43:03.438Z,45.61
2019-04-05T12:45:33.682Z,46.14
2019-04-05T12:48:03.783Z,46.09
2019-04-05T12:50:33.699Z,45.65
2019-04-05T12:53:02.535Z,46.26
2019-04-05T12:55:31.456Z,45.84
2019-04-05T12:58:00.359Z,45.53
2019-04-05T13:00:29.296Z,45.21
2019-04-05T13:02:58.159Z,44.96
2019-04-05T13:05:27.044Z,45.34
2019-04-05T13:07:55.956Z,44.48
2019-04-05T13:10:26.013Z,44.21
2019-04-05T13:12:56.772Z,45.79
2019-04-05T13:15:22.719Z,46.33
2019-04-05T13:17:51.635Z,46.15
2019-04-05T13:20:20.538Z,47.69
2019-04-05T13:22:49.451Z,46.88
2019-04-05T13:25:18.342Z,46.73
2019-04-05T13:27:47.260Z,46.66
2019-04-05T13:30:18.376Z,46.54
2019-04-05T13:32:45.059Z,46.14
2019-04-05T13:35:16.704Z,46.06
2019-04-05T13:37:42.917Z,45.60
2019-04-05T13:40:11.746Z,45.65
2019-04-05T13:42:40.881Z,44.90
2019-04-05T13:45:09.733Z,45.31
2019-04-05T13:47:39.161Z,45.69
2019-04-05T13:50:11.020Z,45.36
2019-04-05T13:52:36.670Z,45.26
2019-04-05T13:55:05.743Z,45.06
2019-04-05T13:57:34.695Z,46.31
2019-04-05T14:00:03.721Z,46.52
2019-04-05T14:02:32.584Z,46.54
2019-04-05T14:05:01.507Z,47.02
2019-04-05T14:07:30.401Z,46.83
2019-04-05T14:09:59.383Z,46.26
2019-04-05T14:12:31.099Z,47.53
2019-04-05T14:14:57.244Z,46.54
2019-04-05T14:17:26.167Z,46.68
2019-04-05T14:19:55.095Z,46.59
2019-04-05T14:22:23.994Z,45.68
2019-04-05T14:24:56.562Z,45.75
2019-04-05T14:27:21.845Z,46.50
2019-04-05T14:29:51.149Z,46.21
2019-04-05T14:32:21.736Z,46.05
2019-04-05T14:34:48.623Z,45.76
2019-04-05T14:37:21.402Z,45.93
2019-04-05T14:39:46.434Z,46.82
2019-04-05T14:42:15.691Z,47.56
2019-04-05T14:44:44.255Z,47.17
2019-04-05T14:47:13.144Z,47.75
2019-04-05T14:49:42.063Z,47.72
2019-04-05T14:52:10.978Z,47.33
2019-04-05T14:54:39.902Z,47.01
2019-04-05T14:57:08.985Z,47.02
2019-04-05T14:59:37.890Z,47.38
2019-04-05T15:02:07.017Z,46.89
2019-04-05T15:04:35.850Z,47.91
2019-04-05T15:07:04.831Z,47.88
2019-04-05T15:09:33.747Z,47.47
2019-04-05T15:12:02.695Z,47.04
2019-04-05T15:14:31.546Z,46.18
2019-04-05T15:17:00.456Z,47.10
2019-04-05T15:19:29.399Z,46.80
2019-04-05T15:22:05.631Z,46.40
2019-04-05T15:24:27.231Z,46.88
2019-04-05T15:26:56.152Z,48.05
2019-04-05T15:29:26.216Z,47.55
2019-04-05T15:31:55.476Z,48.15
2019-04-05T15:34:22.928Z,48.11
2019-04-05T15:36:52.339Z,48.17
2019-04-05T15:39:21.216Z,48.54
2019-04-05T15:41:50.197Z,48.05
2019-04-05T15:44:19.089Z,49.11
2019-04-05T15:46:47.983Z,48.87
2019-04-05T15:49:16.914Z,48.75
2019-04-05T15:51:45.899Z,48.37
2019-04-05T15:54:14.756Z,48.88
2019-04-05T15:56:43.673Z,49.65
2019-04-05T15:59:12.555Z,50.11
2019-04-05T16:01:41.492Z,49.54
2019-04-05T16:04:10.460Z,49.42
2019-04-05T16:06:39.353Z,49.12
2019-04-05T16:09:08.500Z,49.34
2019-04-05T16:11:37.400Z,50.23
2019-04-05T16:14:06.484Z,51.01
2019-04-05T16:16:35.379Z,51.39
2019-04-05T16:19:04.397Z,52.49
2019-04-05T16:21:33.326Z,52.90
2019-04-05T16:24:02.259Z,52.94
2019-04-05T16:26:31.184Z,53.52
2019-04-05T16:29:00.062Z,53.59
2019-04-05T16:31:28.963Z,54.17
2019-04-05T16:33:57.916Z,54.34
2019-04-05T16:36:26.823Z,54.08
2019-04-05T16:38:55.725Z,54.50
2019-04-05T16:41:24.660Z,54.63
2019-04-05T16:43:53.608Z,55.19
2019-04-05T16:46:22.566Z,55.62
2019-04-05T16:48:51.435Z,55.64
2019-04-05T16:51:20.370Z,56.10
2019-04-05T16:54:02.379Z,56.68
2019-04-05T16:56:31.345Z,56.73
2019-04-05T16:59:00.278Z,56.47
2019-04-05T17:01:29.173Z,57.18
2019-04-05T17:03:58.144Z,56.89
2019-04-05T17:06:27.113Z,56.97
2019-04-05T17:08:56.038Z,56.98
2019-04-05T17:11:24.924Z,57.74
2019-04-05T17:13:53.846Z,57.92
2019-04-05T17:16:22.806Z,57.64
2019-04-05T17:18:51.849Z,57.82
2019-04-05T17:21:23.228Z,57.63
2019-04-05T17:23:52.037Z,57.77
2019-04-05T17:26:20.961Z,57.77
2019-04-05T17:28:49.851Z,58.13
2019-04-05T17:31:18.780Z,58.44
2019-04-05T17:33:47.827Z,58.64
2019-04-05T17:36:16.848Z,58.48
2019-04-05T17:38:45.840Z,58.61
2019-04-05T17:41:14.762Z,58.56
2019-04-05T17:43:43.725Z,58.72
2019-04-05T17:46:12.696Z,58.56
2019-04-05T17:48:41.636Z,58.47
2019-04-05T17:51:10.750Z,59.19
2019-04-05T17:53:39.712Z,59.02
2019-04-05T17:56:08.740Z,59.53
2019-04-05T17:58:37.737Z,60.17
2019-04-05T18:01:06.754Z,60.19
2019-04-05T18:03:35.670Z,59.78
2019-04-05T18:06:04.761Z,59.71
2019-04-05T18:08:33.668Z,60.01
2019-04-05T18:11:03.199Z,59.74
2019-04-05T18:13:32.144Z,59.83
2019-04-05T18:16:01.077Z,60.43
2019-04-05T18:18:30.000Z,60.71
2019-04-05T18:20:58.915Z,60.63
2019-04-05T18:23:27.832Z,60.87
2019-04-05T18:25:56.819Z,60.80
2019-04-05T18:28:25.704Z,61.17
2019-04-05T18:30:54.641Z,61.41
2019-04-05T18:33:23.583Z,61.62
2019-04-05T18:35:52.502Z,61.82
2019-04-05T18:38:21.443Z,61.84
2019-04-05T18:40:50.355Z,62.41
2019-04-05T18:43:19.285Z,62.37
2019-04-05T18:45:48.202Z,62.25
2019-04-05T18:48:17.117Z,62.44
2019-04-05T18:50:48.413Z,62.24
2019-04-05T18:53:14.964Z,62.51
2019-04-05T18:55:43.865Z,62.58
2019-04-05T18:58:12.794Z,62.65
2019-04-05T19:00:41.712Z,62.70
2019-04-05T19:03:10.653Z,62.73
2019-04-05T19:05:39.626Z,63.01
2019-04-05T19:08:08.617Z,63.31
2019-04-05T19:10:37.667Z,63.45
2019-04-05T19:13:06.533Z,63.62
2019-04-05T19:15:35.435Z,63.44
2019-04-05T19:18:04.381Z,63.42
2019-04-05T19:20:33.365Z,63.38
2019-04-05T19:23:02.320Z,63.45
2019-04-05T19:25:31.233Z,63.60
2019-04-05T19:28:00.146Z,63.81
2019-04-05T19:50:20.744Z,65.27
2019-04-05T19:52:49.678Z,65.59
2019-04-05T19:55:18.674Z,65.49
2019-04-05T19:57:47.611Z,65.44
2019-04-05T20:00:16.566Z,65.87
2019-04-05T20:02:45.497Z,66.12
2019-04-05T20:05:14.414Z,65.09
2019-04-05T20:07:43.349Z,65.69
2019-04-05T20:10:12.284Z,66.05
2019-04-05T20:12:41.210Z,65.70
2019-04-05T20:15:10.129Z,65.70
2019-04-05T20:17:39.436Z,65.65
2019-04-05T20:20:08.463Z,66.16
2019-04-05T20:22:37.530Z,66.44
2019-04-05T20:25:06.489Z,66.27
2019-04-05T20:27:35.375Z,66.52
2019-04-05T20:30:05.329Z,66.10
2019-04-05T20:32:34.232Z,66.19
2019-04-05T20:35:03.226Z,66.02
2019-04-05T20:37:32.129Z,66.04
2019-04-05T20:40:01.063Z,66.42
2019-04-05T20:42:30.057Z,66.17
2019-04-05T20:44:58.952Z,65.93
2019-04-05T20:47:27.873Z,65.98
2019-04-05T20:49:56.775Z,66.17
2019-04-05T20:52:25.728Z,66.63
2019-04-05T20:54:54.648Z,66.89
2019-04-05T20:57:23.625Z,67.08
2019-04-05T20:59:52.484Z,67.55
2019-04-05T21:02:21.377Z,67.30
2019-04-05T21:04:50.283Z,67.04
2019-04-05T21:07:19.197Z,67.84
2019-04-05T21:09:48.310Z,67.65
2019-04-05T21:12:17.131Z,67.85
2019-04-05T21:14:46.072Z,68.11
2019-04-05T21:17:14.973Z,67.90
2019-04-05T21:19:43.911Z,68.03
2019-04-05T21:22:12.904Z,67.82
2019-04-05T21:24:41.836Z,67.90
2019-04-05T21:27:12.688Z,67.72
2019-04-05T21:29:39.748Z,68.07
2019-04-05T21:32:08.740Z,68.08
2019-04-05T21:34:37.702Z,68.64
2019-04-05T21:37:06.693Z,68.55
2019-04-05T21:39:35.735Z,69.02
2019-04-05T21:42:04.788Z,69.04
2019-04-05T21:44:33.718Z,69.05
2019-04-05T21:47:02.682Z,68.95
2019-04-05T21:49:31.645Z,69.57
2019-04-05T21:52:00.647Z,69.04
2019-04-05T21:54:29.640Z,69.12
2019-04-05T21:56:58.626Z,69.91
2019-04-05T21:59:27.587Z,69.74
2019-04-05T22:01:56.592Z,69.98
2019-04-05T22:04:25.622Z,69.93
2019-04-05T22:06:54.564Z,70.19
2019-04-05T22:09:23.521Z,70.40
2019-04-05T22:11:52.489Z,71.07
2019-04-05T22:14:21.499Z,71.01
2019-04-05T22:16:50.455Z,70.91
2019-04-05T22:19:19.926Z,70.97
2019-04-05T22:21:49.610Z,71.21
2019-04-05T22:24:18.542Z,71.15
2019-04-05T22:26:47.614Z,71.44
2019-04-05T22:29:16.621Z,71.20
2019-04-05T22:31:45.620Z,71.40
2019-04-05T22:34:15.738Z,71.73
2019-04-05T22:36:44.695Z,72.13
2019-04-05T22:39:13.726Z,71.46
2019-04-05T22:41:42.715Z,72.02
2019-04-05T22:44:11.689Z,71.84
2019-04-05T22:46:40.745Z,71.96
2019-04-05T22:49:09.780Z,71.55
2019-04-05T22:51:38.813Z,72.24
2019-04-05T22:54:07.826Z,72.15
2019-04-05T22:56:36.790Z,72.80
2019-04-05T22:59:05.814Z,72.69
2019-04-05T23:01:34.809Z,73.20
2019-04-05T23:04:03.813Z,72.10
2019-04-05T23:06:32.806Z,72.87
2019-04-05T23:09:01.819Z,71.94
2019-04-05T23:11:30.774Z,73.32
2019-04-05T23:13:59.731Z,73.61
2019-04-05T23:16:28.752Z,73.73
2019-04-05T23:18:57.722Z,73.58
2019-04-05T23:21:26.736Z,73.44
2019-04-05T23:23:55.742Z,73.32
2019-04-05T23:26:24.716Z,73.42
2019-04-05T23:28:53.779Z,72.67
2019-04-05T23:31:22.773Z,73.57
2019-04-05T23:33:51.755Z,73.47
2019-04-05T23:36:20.846Z,73.65
2019-04-05T23:38:49.740Z,72.49
2019-04-05T23:41:18.751Z,73.48
2019-04-05T23:43:47.727Z,73.42
2019-04-05T23:46:16.714Z,73.44
2019-04-05T23:48:45.692Z,73.43
2019-04-05T23:51:14.695Z,73.09
2019-04-05T23:53:43.672Z,72.99
2019-04-05T23:56:12.800Z,73.13
2019-04-05T23:58:41.812Z,73.07
